createdAt,value
2017-05-28T00:02:02.307Z,14.40
2017-05-28T00:04:29.499Z,14.50
2017-05-28T00:06:56.674Z,14.50
2017-05-28T00:09:23.859Z,14.60
2017-05-28T00:11:51.012Z,14.70
2017-05-28T00:14:18.190Z,14.80
2017-05-28T00:16:45.456Z,14.80
2017-05-28T00:19:12.632Z,14.80
2017-05-28T00:21:39.764Z,14.80
2017-05-28T00:24:06.937Z,14.80
2017-05-28T00:26:34.108Z,14.80
2017-05-28T00:29:01.261Z,14.70
2017-05-28T00:31:28.433Z,14.60
2017-05-28T00:33:55.816Z,14.50
2017-05-28T00:36:23.125Z,14.40
2017-05-28T00:38:50.311Z,14.30
2017-05-28T00:41:17.570Z,14.20
2017-05-28T00:43:44.750Z,14.10
2017-05-28T00:46:12.019Z,14.00
2017-05-28T00:48:39.191Z,13.90
2017-05-28T00:51:06.342Z,13.90
2017-05-28T00:53:33.633Z,13.80
2017-05-28T00:56:00.915Z,13.80
2017-05-28T00:58:28.108Z,13.70
2017-05-28T01:00:55.416Z,13.60
2017-05-28T01:03:22.582Z,13.50
2017-05-28T01:05:49.762Z,13.50
2017-05-28T01:08:16.975Z,13.50
2017-05-28T01:10:44.183Z,13.50
2017-05-28T01:13:11.357Z,13.50
2017-05-28T01:15:38.590Z,13.50
2017-05-28T01:18:05.761Z,13.50
2017-05-28T01:20:33.016Z,13.60
2017-05-28T01:23:00.200Z,13.60
2017-05-28T01:25:27.356Z,13.70
2017-05-28T01:27:54.540Z,13.60
2017-05-28T01:30:21.726Z,13.60
2017-05-28T01:32:48.980Z,13.60
2017-05-28T01:35:16.236Z,13.50
2017-05-28T01:37:43.461Z,13.40
2017-05-28T01:40:10.885Z,13.30
2017-05-28T01:42:38.066Z,13.30
2017-05-28T01:45:05.933Z,13.30
2017-05-28T01:47:33.214Z,13.20
2017-05-28T01:50:00.390Z,13.20
2017-05-28T01:52:27.587Z,13.20
2017-05-28T01:54:54.763Z,13.10
2017-05-28T01:57:21.953Z,13.00
2017-05-28T01:59:49.132Z,12.90
2017-05-28T02:02:16.283Z,12.80
2017-05-28T02:04:43.483Z,12.80
2017-05-28T02:07:10.676Z,12.80
2017-05-28T02:09:38.012Z,12.80
2017-05-28T02:12:05.287Z,12.70
2017-05-28T02:14:32.445Z,12.70
2017-05-28T02:16:59.733Z,12.60
2017-05-28T02:19:26.907Z,12.60
2017-05-28T02:21:54.075Z,12.50
2017-05-28T02:24:21.257Z,12.50
2017-05-28T02:26:48.456Z,12.50
2017-05-28T02:29:15.630Z,12.40
2017-05-28T02:31:42.812Z,12.40
2017-05-28T02:34:10.140Z,12.40
2017-05-28T02:36:37.318Z,12.30
2017-05-28T02:39:04.586Z,12.30
2017-05-28T02:41:31.765Z,12.20
2017-05-28T02:43:59.009Z,12.20
2017-05-28T02:46:26.525Z,12.20
2017-05-28T02:48:53.714Z,12.20
2017-05-28T02:51:20.915Z,12.20
2017-05-28T02:53:48.618Z,12.10
2017-05-28T02:56:15.782Z,12.10
2017-05-28T02:58:43.267Z,12.10
2017-05-28T03:01:10.457Z,12.10
2017-05-28T03:03:37.780Z,12.00
2017-05-28T03:06:04.987Z,12.00
2017-05-28T03:08:32.447Z,12.00
2017-05-28T03:10:59.616Z,12.00
2017-05-28T03:13:27.068Z,11.90
2017-05-28T03:15:54.636Z,11.90
2017-05-28T03:18:21.808Z,11.90
2017-05-28T03:20:48.976Z,11.90
2017-05-28T03:23:16.273Z,11.90
2017-05-28T03:25:43.449Z,11.80
2017-05-28T03:28:10.849Z,11.90
2017-05-28T03:30:38.033Z,11.90
2017-05-28T03:33:05.336Z,11.90
2017-05-28T03:35:32.612Z,11.90
2017-05-28T03:37:59.824Z,11.90
2017-05-28T03:40:27.654Z,11.90
2017-05-28T03:42:55.181Z,11.90
2017-05-28T03:45:22.358Z,12.00
2017-05-28T03:47:49.595Z,12.00
2017-05-28T03:51:21.333Z,11.90
2017-05-28T03:53:48.529Z,12.20
2017-05-28T03:56:15.705Z,12.30
2017-05-28T03:58:42.883Z,12.50
2017-05-28T04:01:10.078Z,12.70
2017-05-28T04:03:37.366Z,12.90
2017-05-28T04:06:04.543Z,13.60
2017-05-28T04:08:31.711Z,14.70
2017-05-28T04:10:58.872Z,16.00
2017-05-28T04:13:26.052Z,17.30
2017-05-28T04:15:53.329Z,18.50
2017-05-28T04:18:20.603Z,19.70
2017-05-28T04:20:48.292Z,20.70
2017-05-28T04:23:15.496Z,21.70
2017-05-28T04:25:42.689Z,22.60
2017-05-28T04:28:09.869Z,23.30
2017-05-28T04:30:37.041Z,24.00
2017-05-28T04:33:04.225Z,24.70
2017-05-28T04:35:31.425Z,25.30
2017-05-28T04:37:58.702Z,25.90
2017-05-28T04:40:25.971Z,26.60
2017-05-28T04:42:53.134Z,27.10
2017-05-28T04:45:20.299Z,27.60
2017-05-28T04:47:47.494Z,28.10
2017-05-28T04:50:15.171Z,28.60
2017-05-28T04:52:42.351Z,29.00
2017-05-28T04:55:09.558Z,29.60
2017-05-28T04:57:36.725Z,30.00
2017-05-28T05:00:03.961Z,30.30
2017-05-28T05:02:31.176Z,30.70
2017-05-28T05:04:58.395Z,31.20
2017-05-28T05:07:25.618Z,31.60
2017-05-28T05:09:52.851Z,32.10
2017-05-28T05:12:20.041Z,32.50
2017-05-28T05:14:47.219Z,32.70
2017-05-28T05:17:14.408Z,32.90
2017-05-28T05:19:41.619Z,33.30
2017-05-28T05:22:08.814Z,33.30
2017-05-28T05:24:35.989Z,33.50
2017-05-28T05:27:03.562Z,33.70
2017-05-28T05:29:30.840Z,33.80
2017-05-28T05:31:58.056Z,33.80
2017-05-28T05:34:25.310Z,33.80
2017-05-28T05:36:52.513Z,33.90
2017-05-28T05:39:19.711Z,34.40
2017-05-28T05:41:46.970Z,34.90
2017-05-28T05:44:14.177Z,35.40
2017-05-28T05:46:41.460Z,35.90
2017-05-28T05:49:08.614Z,36.50
2017-05-28T05:51:35.788Z,36.70
2017-05-28T05:54:04.097Z,36.90
2017-05-28T05:56:31.573Z,37.30
2017-05-28T05:58:58.743Z,37.20
2017-05-28T06:01:25.926Z,37.00
2017-05-28T06:03:53.140Z,36.50
2017-05-28T06:06:20.323Z,36.10
2017-05-28T06:08:47.536Z,36.00
2017-05-28T06:11:15.755Z,36.40
2017-05-28T06:13:43.005Z,36.70
2017-05-28T06:16:10.223Z,36.80
2017-05-28T06:18:37.418Z,37.00
2017-05-28T06:21:04.594Z,36.80
2017-05-28T06:23:31.783Z,36.70
2017-05-28T06:25:58.979Z,36.90
2017-05-28T06:28:26.139Z,37.00
2017-05-28T06:30:53.319Z,36.80
2017-05-28T06:33:20.516Z,36.70
2017-05-28T06:35:49.700Z,36.70
2017-05-28T06:38:16.909Z,36.90
2017-05-28T06:40:44.249Z,37.40
2017-05-28T06:43:11.527Z,37.70
2017-05-28T06:45:38.742Z,38.00
2017-05-28T06:48:05.915Z,38.20
2017-05-28T06:50:33.090Z,38.20
2017-05-28T06:53:00.330Z,38.40
2017-05-28T06:55:27.588Z,38.70
2017-05-28T06:57:54.863Z,39.00
2017-05-28T07:00:22.136Z,39.20
2017-05-28T07:02:49.319Z,39.40
2017-05-28T07:05:16.585Z,39.40
2017-05-28T07:07:43.862Z,39.50
2017-05-28T07:10:11.078Z,39.70
2017-05-28T07:12:38.333Z,39.70
2017-05-28T07:15:05.578Z,39.80
2017-05-28T07:17:32.852Z,40.10
2017-05-28T07:20:00.070Z,39.80
2017-05-28T07:22:31.295Z,39.60
2017-05-28T07:25:00.684Z,39.50
2017-05-28T07:27:28.100Z,39.40
2017-05-28T07:29:55.309Z,39.30
2017-05-28T07:32:22.940Z,38.80
2017-05-28T07:34:50.662Z,38.30
2017-05-28T07:37:18.205Z,38.70
2017-05-28T07:39:45.477Z,38.80
2017-05-28T07:42:12.666Z,39.10
2017-05-28T07:44:40.165Z,39.20
2017-05-28T07:47:07.512Z,39.20
2017-05-28T07:49:34.699Z,39.50
2017-05-28T07:52:04.173Z,39.60
2017-05-28T07:54:31.374Z,39.30
2017-05-28T07:56:58.752Z,39.20
2017-05-28T07:59:26.434Z,39.20
2017-05-28T08:01:53.632Z,39.20
2017-05-28T08:04:21.422Z,39.50
2017-05-28T08:06:48.665Z,39.50
2017-05-28T08:09:15.900Z,39.20
2017-05-28T08:11:43.396Z,39.00
2017-05-28T08:14:10.693Z,38.80
2017-05-28T08:16:37.973Z,38.50
2017-05-28T08:19:05.346Z,37.70
2017-05-28T08:21:33.130Z,36.30
2017-05-28T08:24:00.404Z,34.90
2017-05-28T08:26:27.679Z,33.40
2017-05-28T08:28:55.157Z,32.20
2017-05-28T08:31:22.359Z,31.40
2017-05-28T08:33:49.603Z,30.70
2017-05-28T08:36:16.979Z,30.00
2017-05-28T08:38:44.253Z,29.50
2017-05-28T08:41:11.445Z,29.10
2017-05-28T08:43:38.700Z,29.00
2017-05-28T08:46:06.556Z,28.70
2017-05-28T08:48:33.753Z,28.20
2017-05-28T08:51:01.156Z,27.90
2017-05-28T08:53:29.277Z,27.70
2017-05-28T08:55:56.481Z,27.60
2017-05-28T08:58:24.312Z,27.50
2017-05-28T09:00:51.570Z,27.30
2017-05-28T09:03:18.942Z,27.10
2017-05-28T09:05:46.214Z,27.00
2017-05-28T09:08:14.711Z,26.90
2017-05-28T09:10:42.195Z,26.80
2017-05-28T09:13:09.578Z,26.80
2017-05-28T09:15:36.818Z,26.90
2017-05-28T09:18:04.179Z,26.90
2017-05-28T09:20:31.501Z,27.00
2017-05-28T09:22:58.772Z,27.10
2017-05-28T09:25:26.555Z,27.20
2017-05-28T09:27:53.809Z,27.30
2017-05-28T09:30:21.014Z,27.30
2017-05-28T09:32:49.304Z,27.20
2017-05-28T09:35:16.465Z,27.20
2017-05-28T09:37:43.676Z,27.20
2017-05-28T09:40:11.839Z,27.00
2017-05-28T09:42:39.613Z,27.00
2017-05-28T09:45:06.897Z,26.90
2017-05-28T09:47:34.692Z,26.90
2017-05-28T09:50:02.229Z,27.00
2017-05-28T09:52:29.392Z,27.00
2017-05-28T09:54:56.577Z,27.00
2017-05-28T09:57:23.737Z,27.00
2017-05-28T09:59:50.904Z,27.00
2017-05-28T10:02:18.593Z,27.20
2017-05-28T10:04:45.769Z,27.30
2017-05-28T10:07:12.972Z,27.30
2017-05-28T10:09:40.298Z,27.40
2017-05-28T10:12:07.500Z,27.40
2017-05-28T10:14:34.679Z,27.40
2017-05-28T10:17:01.841Z,27.50
2017-05-28T10:19:28.995Z,27.50
2017-05-28T10:21:56.166Z,27.50
2017-05-28T10:24:23.359Z,27.70
2017-05-28T10:26:50.531Z,27.80
2017-05-28T10:29:17.708Z,27.90
2017-05-28T10:31:45.217Z,27.90
2017-05-28T10:34:12.544Z,28.00
2017-05-28T10:36:39.978Z,27.90
2017-05-28T10:39:07.173Z,27.90
2017-05-28T10:41:34.353Z,27.80
2017-05-28T10:44:01.826Z,27.80
2017-05-28T10:46:29.669Z,27.80
2017-05-28T10:48:58.860Z,27.80
2017-05-28T10:51:26.168Z,27.90
2017-05-28T10:53:53.341Z,27.90
2017-05-28T10:56:20.586Z,27.90
2017-05-28T10:58:47.774Z,27.80
2017-05-28T11:01:14.945Z,27.80
2017-05-28T11:03:42.142Z,27.90
2017-05-28T11:06:09.405Z,27.80
2017-05-28T11:08:37.266Z,27.90
2017-05-28T11:11:04.486Z,28.00
2017-05-28T11:13:31.743Z,28.10
2017-05-28T11:15:59.116Z,28.20
2017-05-28T11:18:26.375Z,28.30
2017-05-28T11:20:53.571Z,28.20
2017-05-28T11:23:24.651Z,28.00
2017-05-28T11:25:51.906Z,27.90
2017-05-28T11:28:19.092Z,27.80
2017-05-28T11:30:46.278Z,27.80
2017-05-28T11:33:14.149Z,27.70
2017-05-28T11:35:41.358Z,27.70
2017-05-28T11:38:09.297Z,27.60
2017-05-28T11:40:36.678Z,27.70
2017-05-28T11:43:03.864Z,27.70
2017-05-28T11:45:32.293Z,27.80
2017-05-28T11:47:59.489Z,27.80
2017-05-28T11:50:26.994Z,27.90
2017-05-28T11:52:54.192Z,27.90
2017-05-28T11:55:21.384Z,27.90
2017-05-28T11:57:48.606Z,27.90
2017-05-28T12:00:15.826Z,27.90
2017-05-28T12:02:43.002Z,27.90
2017-05-28T12:05:10.287Z,28.00
2017-05-28T12:07:37.495Z,28.20
2017-05-28T12:10:04.670Z,28.30
2017-05-28T12:12:32.644Z,28.40
2017-05-28T12:14:59.936Z,28.40
2017-05-28T12:17:27.116Z,28.40
2017-05-28T12:19:54.484Z,28.40
2017-05-28T12:22:21.689Z,28.40
2017-05-28T12:24:48.931Z,28.40
2017-05-28T12:27:16.153Z,28.50
2017-05-28T12:29:43.353Z,28.50
2017-05-28T12:32:10.569Z,28.50
2017-05-28T12:34:38.298Z,28.50
2017-05-28T12:37:05.867Z,28.60
2017-05-28T12:39:33.083Z,28.70
2017-05-28T12:42:00.249Z,28.80
2017-05-28T12:44:27.540Z,28.80
2017-05-28T12:46:54.711Z,28.80
2017-05-28T12:49:21.982Z,28.70
2017-05-28T12:51:49.171Z,28.60
2017-05-28T12:54:16.953Z,28.60
2017-05-28T12:56:44.742Z,28.60
2017-05-28T12:59:11.929Z,28.70
2017-05-28T13:01:39.272Z,28.80
2017-05-28T13:04:06.461Z,28.90
2017-05-28T13:06:33.651Z,28.90
2017-05-28T13:09:01.003Z,28.90
2017-05-28T13:11:43.107Z,29.00
2017-05-28T13:14:10.299Z,29.00
2017-05-28T13:16:37.543Z,28.90
2017-05-28T13:20:41.780Z,28.90
2017-05-28T13:23:08.967Z,28.80
2017-05-28T13:25:36.218Z,28.60
2017-05-28T13:28:03.390Z,28.60
2017-05-28T13:30:30.584Z,28.50
2017-05-28T13:32:57.756Z,28.50
2017-05-28T13:35:24.939Z,28.50
2017-05-28T13:37:52.184Z,28.50
2017-05-28T13:40:19.422Z,28.50
2017-05-28T13:42:46.640Z,28.60
2017-05-28T13:45:13.810Z,28.60
2017-05-28T13:47:40.993Z,28.70
2017-05-28T13:50:08.187Z,28.70
2017-05-28T13:52:35.367Z,28.70
2017-05-28T13:55:02.539Z,28.70
2017-05-28T13:57:29.719Z,28.60
2017-05-28T13:59:56.896Z,28.60
2017-05-28T14:02:24.067Z,28.60
2017-05-28T14:04:51.482Z,28.70
2017-05-28T14:07:18.648Z,28.70
2017-05-28T14:09:45.809Z,28.70
2017-05-28T14:12:12.976Z,28.80
2017-05-28T14:14:40.181Z,28.80
2017-05-28T14:17:07.961Z,28.70
2017-05-28T14:19:35.146Z,28.60
2017-05-28T14:22:02.402Z,28.50
2017-05-28T14:24:29.618Z,28.60
2017-05-28T14:26:56.780Z,28.50
2017-05-28T14:29:24.124Z,28.40
2017-05-28T14:31:51.293Z,28.30
2017-05-28T14:34:18.467Z,28.20
2017-05-28T14:36:46.601Z,28.20
2017-05-28T14:39:13.773Z,28.20
2017-05-28T14:41:41.006Z,28.10
2017-05-28T14:44:08.280Z,28.10
2017-05-28T14:46:35.489Z,28.10
2017-05-28T14:49:02.839Z,28.20
2017-05-28T14:51:30.020Z,28.40
2017-05-28T14:53:57.200Z,28.50
2017-05-28T14:56:24.532Z,28.50
2017-05-28T14:58:51.723Z,28.50
2017-05-28T15:01:18.916Z,28.60
2017-05-28T15:03:46.101Z,28.70
2017-05-28T15:06:13.284Z,28.80
2017-05-28T15:08:40.970Z,28.70
2017-05-28T15:11:08.518Z,28.70
2017-05-28T15:13:36.351Z,28.70
2017-05-28T15:16:03.525Z,28.60
2017-05-28T15:18:30.680Z,28.60
2017-05-28T15:20:57.874Z,28.60
2017-05-28T15:23:25.180Z,28.50
2017-05-28T15:25:52.357Z,28.50
2017-05-28T15:28:19.627Z,28.40
2017-05-28T15:30:46.822Z,28.50
2017-05-28T15:33:14.178Z,28.50
2017-05-28T15:35:41.452Z,28.50
2017-05-28T15:38:08.671Z,28.40
2017-05-28T15:40:35.843Z,28.40
2017-05-28T15:43:03.028Z,28.20
2017-05-28T15:45:30.259Z,28.10
2017-05-28T15:47:57.443Z,28.00
2017-05-28T15:50:24.639Z,27.90
2017-05-28T15:52:51.961Z,27.80
2017-05-28T15:55:19.234Z,27.70
2017-05-28T15:57:47.026Z,27.50
2017-05-28T16:00:14.398Z,27.40
2017-05-28T16:02:41.637Z,27.30
2017-05-28T16:05:08.841Z,27.40
2017-05-28T16:07:36.004Z,27.60
2017-05-28T16:10:03.187Z,27.80
2017-05-28T16:12:30.401Z,27.90
2017-05-28T16:14:57.626Z,28.10
2017-05-28T16:17:24.822Z,28.20
2017-05-28T16:19:52.043Z,28.30
2017-05-28T16:22:19.190Z,28.40
2017-05-28T16:25:01.459Z,28.40
2017-05-28T16:27:28.640Z,28.40
2017-05-28T16:29:55.892Z,28.30
2017-05-28T16:32:23.177Z,28.30
2017-05-28T16:35:05.383Z,28.30
2017-05-28T16:37:32.572Z,28.20
2017-05-28T16:39:59.777Z,28.10
2017-05-28T16:42:26.952Z,28.00
2017-05-28T16:44:54.153Z,27.90
2017-05-28T16:47:21.401Z,27.90
2017-05-28T16:49:48.584Z,27.80
2017-05-28T16:52:15.742Z,27.70
2017-05-28T16:54:43.065Z,27.50
2017-05-28T16:57:10.251Z,27.30
2017-05-28T16:59:37.436Z,27.20
2017-05-28T17:02:04.714Z,27.20
2017-05-28T17:04:31.932Z,27.10
2017-05-28T17:06:59.338Z,27.00
2017-05-28T17:09:27.264Z,26.90
2017-05-28T17:11:54.457Z,26.80
2017-05-28T17:14:21.778Z,26.70
2017-05-28T17:16:49.155Z,26.60
2017-05-28T17:19:16.629Z,26.50
2017-05-28T17:21:44.008Z,26.50
2017-05-28T17:24:11.207Z,26.40
2017-05-28T17:26:39.580Z,26.30
2017-05-28T17:29:06.831Z,26.20
2017-05-28T17:31:34.227Z,26.10
2017-05-28T17:34:01.543Z,26.00
2017-05-28T17:36:28.880Z,25.80
2017-05-28T17:38:56.257Z,25.70
2017-05-28T17:41:23.944Z,25.60
2017-05-28T17:43:51.158Z,25.50
2017-05-28T17:46:18.407Z,25.50
2017-05-28T17:48:45.617Z,25.40
2017-05-28T17:51:12.802Z,25.30
2017-05-28T17:53:40.011Z,25.20
2017-05-28T17:56:07.391Z,25.10
2017-05-28T17:58:34.742Z,25.00
2017-05-28T18:01:02.094Z,24.80
2017-05-28T18:03:29.278Z,24.70
2017-05-28T18:05:56.460Z,24.60
2017-05-28T18:08:27.610Z,24.50
2017-05-28T18:10:54.911Z,24.30
2017-05-28T18:13:22.105Z,24.20
2017-05-28T18:15:49.327Z,24.00
2017-05-28T18:18:16.561Z,23.90
2017-05-28T18:20:43.783Z,23.80
2017-05-28T18:23:10.974Z,23.70
2017-05-28T18:25:38.253Z,23.60
2017-05-28T18:28:05.404Z,23.40
2017-05-28T18:30:32.695Z,23.30
2017-05-28T18:33:06.448Z,23.20
2017-05-28T18:35:36.254Z,23.00
2017-05-28T18:38:05.055Z,22.90
2017-05-28T18:40:32.465Z,22.80
2017-05-28T18:42:59.934Z,22.70
2017-05-28T18:45:27.820Z,22.70
2017-05-28T18:47:58.186Z,22.60
2017-05-28T18:50:28.077Z,22.50
2017-05-28T18:52:58.344Z,22.40
2017-05-28T18:55:29.559Z,22.30
2017-05-28T18:57:59.391Z,22.30
2017-05-28T19:00:31.652Z,22.20
2017-05-28T19:02:59.095Z,22.10
2017-05-28T19:05:26.304Z,22.10
2017-05-28T19:07:55.253Z,22.00
2017-05-28T19:10:22.512Z,21.90
2017-05-28T19:12:49.716Z,21.90
2017-05-28T19:15:17.178Z,21.90
2017-05-28T19:17:45.271Z,21.80
2017-05-28T19:20:12.546Z,21.70
2017-05-28T19:22:40.183Z,21.70
2017-05-28T19:25:07.711Z,21.70
2017-05-28T19:27:35.089Z,21.60
2017-05-28T19:30:02.470Z,21.60
2017-05-28T19:32:29.734Z,21.60
2017-05-28T19:34:57.110Z,21.50
2017-05-28T19:37:24.341Z,21.50
2017-05-28T19:39:51.763Z,21.40
2017-05-28T19:42:19.037Z,21.30
2017-05-28T19:44:46.516Z,21.30
2017-05-28T19:47:13.794Z,21.20
2017-05-28T19:49:40.996Z,21.10
2017-05-28T19:52:08.236Z,21.00
2017-05-28T19:54:36.362Z,20.90
2017-05-28T19:57:03.707Z,20.90
2017-05-28T19:59:30.945Z,20.80
2017-05-28T20:01:58.253Z,20.80
2017-05-28T20:04:25.505Z,20.70
2017-05-28T20:06:52.721Z,20.60
2017-05-28T20:09:19.949Z,20.50
2017-05-28T20:11:47.250Z,20.50
2017-05-28T20:14:14.614Z,20.40
2017-05-28T20:16:41.900Z,20.30
2017-05-28T20:19:09.110Z,20.30
2017-05-28T20:21:36.306Z,20.20
2017-05-28T20:24:03.502Z,20.20
2017-05-28T20:26:30.669Z,20.10
2017-05-28T20:28:57.863Z,20.10
2017-05-28T20:31:25.072Z,20.00
2017-05-28T20:33:52.257Z,19.90
2017-05-28T20:36:19.582Z,19.90
2017-05-28T20:38:46.753Z,19.80
2017-05-28T20:41:13.932Z,19.80
2017-05-28T20:43:41.283Z,19.80
2017-05-28T20:46:08.609Z,19.70
2017-05-28T20:48:35.883Z,19.70
2017-05-28T20:51:03.077Z,19.70
2017-05-28T20:53:30.264Z,19.60
2017-05-28T20:55:57.638Z,19.60
2017-05-28T20:58:24.815Z,19.60
2017-05-28T21:00:52.075Z,19.50
2017-05-28T21:03:19.292Z,19.50
2017-05-28T21:05:46.488Z,19.50
2017-05-28T21:08:13.739Z,19.40
2017-05-28T21:10:41.013Z,19.40
2017-05-28T21:13:08.238Z,19.30
2017-05-28T21:15:35.458Z,19.30
2017-05-28T21:18:02.738Z,19.20
2017-05-28T21:20:29.910Z,19.20
2017-05-28T21:22:57.181Z,19.20
2017-05-28T21:25:24.371Z,19.10
2017-05-28T21:27:51.570Z,19.10
2017-05-28T21:30:19.249Z,19.10
2017-05-28T21:32:46.503Z,19.10
2017-05-28T21:35:13.825Z,19.20
2017-05-28T21:37:40.980Z,19.20
2017-05-28T21:40:08.184Z,19.30
2017-05-28T21:42:35.346Z,19.30
2017-05-28T21:45:03.529Z,19.30
2017-05-28T21:47:30.708Z,19.30
2017-05-28T21:49:58.182Z,19.30
2017-05-28T21:52:25.369Z,19.30
2017-05-28T21:54:52.549Z,19.20
2017-05-28T21:57:19.735Z,19.20
2017-05-28T21:59:47.009Z,19.10
2017-05-28T22:02:14.170Z,19.10
2017-05-28T22:04:41.386Z,19.00
2017-05-28T22:07:08.604Z,19.00
2017-05-28T22:09:35.782Z,18.90
2017-05-28T22:12:03.074Z,18.90
2017-05-28T22:14:30.279Z,18.80
2017-05-28T22:16:57.560Z,18.80
2017-05-28T22:19:25.024Z,18.80
2017-05-28T22:21:52.211Z,18.70
2017-05-28T22:24:19.837Z,18.70
2017-05-28T22:26:47.658Z,18.70
2017-05-28T22:29:14.837Z,18.70
2017-05-28T22:31:42.029Z,18.60
2017-05-28T22:34:09.226Z,18.60
2017-05-28T22:36:36.410Z,18.60
2017-05-28T22:39:03.721Z,18.60
2017-05-28T22:41:30.897Z,18.60
2017-05-28T22:43:58.151Z,18.60
2017-05-28T22:46:25.343Z,18.60
2017-05-28T22:48:52.532Z,18.60
2017-05-28T22:51:19.715Z,18.50
2017-05-28T22:53:46.907Z,18.50
2017-05-28T22:56:14.091Z,18.50
2017-05-28T22:58:41.286Z,18.40
2017-05-28T23:01:08.444Z,18.40
2017-05-28T23:03:35.623Z,18.40
2017-05-28T23:06:02.829Z,18.30
2017-05-28T23:08:30.078Z,18.30
2017-05-28T23:10:57.237Z,18.30
2017-05-28T23:13:24.395Z,18.20
2017-05-28T23:15:51.694Z,18.20
2017-05-28T23:18:18.875Z,18.20
2017-05-28T23:20:46.057Z,18.10
2017-05-28T23:23:13.241Z,18.10
2017-05-28T23:25:40.806Z,18.00
2017-05-28T23:28:07.985Z,18.00
2017-05-28T23:30:35.194Z,18.00
2017-05-28T23:33:02.678Z,18.00
2017-05-28T23:35:29.837Z,17.90
2017-05-28T23:37:57.011Z,17.80
2017-05-28T23:40:24.191Z,17.80
2017-05-28T23:42:51.404Z,17.70
2017-05-28T23:45:18.680Z,17.70
2017-05-28T23:47:45.850Z,17.60
2017-05-28T23:50:13.000Z,17.60
2017-05-28T23:52:40.215Z,17.50
2017-05-28T23:55:07.892Z,17.50
2017-05-28T23:57:35.058Z,17.40
